Time;durP1;ratioP1;P1;durP2;ratioP2;P2;SDS_P1;SDS_P2;PMS_P1;PMS_P2;Temp;Humidity;BMP_temperature;BMP_pressure;BME280_temperature;BME280_humidity;BME280_pressure;Samples;Min_cycle;Max_cycle;Signal;HPM_P1;HPM_P2
2021/10/11 00:01:19;;;;;;;19.97;10.43;;;5.10;99.90;;;;;;4212159;28;20818;-80
2021/10/11 00:03:21;;;;;;;19.40;10.77;;;5.10;99.90;;;;;;4210543;28;20465;-80
2021/10/11 00:05:22;;;;;;;18.77;10.73;;;5.00;99.90;;;;;;4210717;28;20496;-80
2021/10/11 00:07:24;;;;;;;20.30;11.10;;;5.00;99.90;;;;;;4200681;28;20468;-81
2021/10/11 00:09:26;;;;;;;20.03;10.13;;;5.00;99.90;;;;;;4207466;28;20922;-80
2021/10/11 00:11:28;;;;;;;17.83;9.93;;;4.90;99.90;;;;;;4198649;28;20488;-80
2021/10/11 00:13:29;;;;;;;19.07;10.40;;;5.20;99.90;;;;;;4186458;28;20515;-81
2021/10/11 00:15:33;;;;;;;19.13;10.53;;;4.90;99.90;;;;;;4191358;28;20491;-81
2021/10/11 00:17:34;;;;;;;19.57;10.77;;;4.90;99.90;;;;;;4198685;28;20554;-80
2021/10/11 00:19:37;;;;;;;19.73;10.53;;;4.90;99.90;;;;;;4198807;28;20452;-81
2021/10/11 00:21:39;;;;;;;23.80;11.23;;;4.80;99.90;;;;;;4198511;28;20854;-80
2021/10/11 00:23:42;;;;;;;20.90;11.30;;;4.80;99.90;;;;;;4182285;28;20476;-81
2021/10/11 00:25:43;;;;;;;22.90;11.97;;;4.80;99.90;;;;;;4185350;28;20467;-81
2021/10/11 00:27:45;;;;;;;19.87;11.17;;;4.80;99.90;;;;;;4203005;28;20452;-80
2021/10/11 00:29:47;;;;;;;20.07;10.97;;;4.70;99.90;;;;;;4198293;28;20494;-81
2021/10/11 00:31:50;;;;;;;20.20;10.67;;;4.70;99.90;;;;;;4198029;28;20513;-81
2021/10/11 00:33:51;;;;;;;20.00;10.73;;;4.70;99.90;;;;;;4199566;28;20530;-80
2021/10/11 00:35:53;;;;;;;21.63;11.03;;;4.70;99.90;;;;;;4198489;28;20481;-81
2021/10/11 00:37:55;;;;;;;19.13;10.43;;;4.70;99.90;;;;;;4199103;28;20456;-80
2021/10/11 00:39:56;;;;;;;22.60;11.00;;;4.60;99.90;;;;;;4189842;28;20490;-81
2021/10/11 00:41:58;;;;;;;20.33;10.77;;;4.60;99.90;;;;;;4198736;28;20475;-81
2021/10/11 00:44:01;;;;;;;19.27;10.03;;;4.60;99.90;;;;;;4196968;28;20523;-81
2021/10/11 00:46:02;;;;;;;19.70;10.50;;;4.60;99.90;;;;;;4204440;28;20518;-81
2021/10/11 00:48:06;;;;;;;19.77;10.30;;;4.60;99.90;;;;;;4186809;28;20453;-81
2021/10/11 00:50:08;;;;;;;21.20;10.07;;;4.60;99.90;;;;;;4201098;28;20925;-81
2021/10/11 00:52:10;;;;;;;17.67;10.27;;;4.50;99.90;;;;;;4200508;28;20484;-81
2021/10/11 00:54:13;;;;;;;18.03;10.60;;;4.50;99.90;;;;;;4200299;28;20562;-80
2021/10/11 00:56:15;;;;;;;19.50;10.37;;;4.50;99.90;;;;;;4209794;28;20521;-81
2021/10/11 00:58:17;;;;;;;22.83;10.87;;;4.50;99.90;;;;;;4209200;28;20458;-80
2021/10/11 01:00:19;;;;;;;18.70;10.27;;;4.50;99.90;;;;;;4209409;28;20456;-80
2021/10/11 01:02:22;;;;;;;19.43;9.70;;;4.40;99.90;;;;;;4194794;28;20462;-80
2021/10/11 01:04:25;;;;;;;18.80;10.17;;;4.40;99.90;;;;;;4201363;28;20495;-81
2021/10/11 01:06:27;;;;;;;19.73;10.40;;;4.40;99.90;;;;;;4219257;28;20505;-80
2021/10/11 01:08:29;;;;;;;20.07;10.50;;;4.40;99.90;;;;;;4219676;28;20495;-80
2021/10/11 01:10:31;;;;;;;21.97;10.57;;;4.40;99.90;;;;;;4203946;28;20489;-80
2021/10/11 01:12:33;;;;;;;20.97;10.47;;;4.40;99.90;;;;;;4200436;28;20498;-81
2021/10/11 01:14:35;;;;;;;17.13;9.53;;;4.40;99.90;;;;;;4203386;28;20476;-81
2021/10/11 01:16:37;;;;;;;21.87;10.80;;;4.40;99.90;;;;;;4201403;28;20477;-80
2021/10/11 01:18:39;;;;;;;21.43;10.70;;;4.40;99.90;;;;;;4199628;28;20456;-81
2021/10/11 01:20:42;;;;;;;22.20;10.83;;;4.40;99.90;;;;;;4194836;28;20964;-81
2021/10/11 01:22:45;;;;;;;20.67;10.40;;;4.30;99.90;;;;;;4203627;28;20850;-80
2021/10/11 01:24:47;;;;;;;20.30;10.57;;;4.30;99.90;;;;;;4201141;28;20989;-81
2021/10/11 01:26:48;;;;;;;19.93;11.30;;;4.30;99.90;;;;;;4200930;28;20873;-81
2021/10/11 01:28:50;;;;;;;23.77;11.53;;;4.30;99.90;;;;;;4202102;28;20482;-81
2021/10/11 01:30:52;;;;;;;21.23;10.60;;;4.30;99.90;;;;;;4217114;28;20455;-81
2021/10/11 01:32:54;;;;;;;18.67;10.77;;;4.30;99.90;;;;;;4207930;28;20525;-81
2021/10/11 01:34:56;;;;;;;19.63;10.13;;;4.30;99.90;;;;;;4213346;28;20502;-81
2021/10/11 01:36:59;;;;;;;21.03;10.47;;;4.30;99.90;;;;;;4199498;28;20448;-80
2021/10/11 01:39:07;;;;;;;18.13;10.27;;;4.30;99.90;;;;;;4185046;28;20460;-81
2021/10/11 01:41:09;;;;;;;21.03;10.40;;;4.30;99.90;;;;;;4187564;28;20820;-81
2021/10/11 01:43:10;;;;;;;20.87;10.30;;;4.20;99.90;;;;;;4195687;28;20448;-81
2021/10/11 01:45:13;;;;;;;21.03;10.80;;;4.20;99.90;;;;;;4196597;28;20489;-81
2021/10/11 01:47:14;;;;;;;19.37;10.93;;;4.20;99.90;;;;;;4200726;28;20478;-81
2021/10/11 01:49:16;;;;;;;22.13;10.57;;;4.20;99.90;;;;;;4200458;28;20459;-81
2021/10/11 01:51:19;;;;;;;19.57;10.30;;;4.20;99.90;;;;;;4199503;28;20456;-81
2021/10/11 01:53:22;;;;;;;21.13;11.17;;;4.20;99.90;;;;;;4192583;28;20953;-81
2021/10/11 01:55:24;;;;;;;20.23;10.37;;;4.20;99.90;;;;;;4196728;28;20488;-81
2021/10/11 01:57:26;;;;;;;19.50;10.87;;;4.10;99.90;;;;;;4202000;28;20513;-81
2021/10/11 01:59:27;;;;;;;21.00;10.80;;;4.10;99.90;;;;;;4200643;28;20456;-81
2021/10/11 02:01:29;;;;;;;19.73;10.50;;;4.10;99.90;;;;;;4209147;28;20924;-81
2021/10/11 02:03:31;;;;;;;20.03;10.03;;;4.10;99.90;;;;;;4205552;28;20459;-81
2021/10/11 02:05:32;;;;;;;21.87;10.97;;;4.10;99.90;;;;;;4193498;28;20473;-81
2021/10/11 02:07:34;;;;;;;21.00;10.97;;;4.10;99.90;;;;;;4200126;28;20457;-81
2021/10/11 02:09:37;;;;;;;22.30;11.60;;;4.10;99.90;;;;;;4199800;28;20456;-81
2021/10/11 02:11:39;;;;;;;21.07;10.83;;;4.10;99.90;;;;;;4195608;28;20469;-81
2021/10/11 02:13:41;;;;;;;23.23;11.30;;;4.00;99.90;;;;;;4185181;28;20514;-81
2021/10/11 02:15:43;;;;;;;23.00;10.93;;;4.10;99.90;;;;;;4200064;28;20467;-81
2021/10/11 02:17:44;;;;;;;21.93;10.80;;;4.10;99.90;;;;;;4199980;28;20719;-81
2021/10/11 02:19:46;;;;;;;21.37;10.53;;;4.00;99.90;;;;;;4199531;28;20952;-81
2021/10/11 02:21:48;;;;;;;19.30;10.60;;;4.00;99.90;;;;;;4198602;28;20460;-81
2021/10/11 02:23:49;;;;;;;19.50;10.17;;;4.00;99.90;;;;;;4209540;28;20480;-81
2021/10/11 02:25:52;;;;;;;17.90;10.00;;;4.00;99.90;;;;;;4210386;28;20455;-81
2021/10/11 02:27:54;;;;;;;19.57;10.20;;;4.00;99.90;;;;;;4204949;28;20456;-81
2021/10/11 02:29:56;;;;;;;20.73;10.20;;;4.00;99.90;;;;;;4196479;28;20497;-81
2021/10/11 02:31:57;;;;;;;23.10;10.90;;;4.00;99.90;;;;;;4201375;28;21020;-81
2021/10/11 02:33:59;;;;;;;19.13;10.20;;;4.00;99.90;;;;;;4202341;28;20503;-81
2021/10/11 02:36:01;;;;;;;19.97;10.00;;;4.00;99.90;;;;;;4200318;28;20468;-81
2021/10/11 02:38:02;;;;;;;20.30;10.40;;;4.00;99.90;;;;;;4202081;28;20464;-81
2021/10/11 02:40:06;;;;;;;21.10;10.70;;;4.00;99.90;;;;;;4188783;28;20461;-81
2021/10/11 02:42:09;;;;;;;20.17;10.57;;;4.00;99.90;;;;;;4183755;28;20453;-81
2021/10/11 02:44:10;;;;;;;19.20;10.30;;;4.00;99.90;;;;;;4206059;28;20492;-81
2021/10/11 02:46:12;;;;;;;21.10;11.07;;;3.90;99.90;;;;;;4200539;28;20514;-81
2021/10/11 02:48:14;;;;;;;18.00;9.87;;;4.00;99.90;;;;;;4198636;28;20519;-81
2021/10/11 02:50:16;;;;;;;18.63;9.83;;;3.90;99.90;;;;;;4201205;28;20467;-81
2021/10/11 02:52:17;;;;;;;22.13;10.47;;;3.90;99.90;;;;;;4206477;28;20600;-81
2021/10/11 02:54:19;;;;;;;20.53;10.47;;;3.90;99.90;;;;;;4218506;28;20470;-81
2021/10/11 02:56:21;;;;;;;18.47;9.67;;;3.90;99.90;;;;;;4204240;28;20467;-81
2021/10/11 02:58:24;;;;;;;18.00;9.83;;;3.90;99.90;;;;;;4201512;28;20468;-81
2021/10/11 03:00:26;;;;;;;22.13;10.63;;;3.90;99.90;;;;;;4201927;28;20452;-81
2021/10/11 03:02:27;;;;;;;18.20;9.77;;;3.90;99.90;;;;;;4199354;28;20541;-81
2021/10/11 03:04:29;;;;;;;19.60;10.13;;;3.90;99.90;;;;;;4193677;28;20516;-81
2021/10/11 03:06:31;;;;;;;21.77;11.07;;;3.90;99.90;;;;;;4184046;28;20452;-81
2021/10/11 03:08:33;;;;;;;20.13;10.93;;;3.90;99.90;;;;;;4198029;28;20507;-81
2021/10/11 03:10:35;;;;;;;20.63;10.80;;;3.90;99.90;;;;;;4197156;28;20496;-81
2021/10/11 03:12:36;;;;;;;17.43;9.63;;;3.90;99.90;;;;;;4196433;28;20484;-81
2021/10/11 03:14:40;;;;;;;20.00;10.27;;;3.90;99.90;;;;;;4184581;28;20520;-80
2021/10/11 03:16:41;;;;;;;18.40;9.57;;;3.90;99.90;;;;;;4197927;28;20818;-81
2021/10/11 03:18:43;;;;;;;20.77;9.63;;;3.90;99.90;;;;;;4199848;28;20468;-81
2021/10/11 03:20:45;;;;;;;20.30;10.50;;;3.90;99.90;;;;;;4200408;28;20448;-81
2021/10/11 03:22:46;;;;;;;19.83;10.13;;;3.90;99.90;;;;;;4199112;28;20937;-81
2021/10/11 03:24:48;;;;;;;19.60;9.93;;;3.90;99.90;;;;;;4198157;28;20484;-80
2021/10/11 03:26:50;;;;;;;18.57;9.60;;;3.90;99.90;;;;;;4203523;28;20447;-81
2021/10/11 03:28:51;;;;;;;18.47;10.33;;;3.90;99.90;;;;;;4200298;28;20493;-80
2021/10/11 03:30:54;;;;;;;18.87;10.23;;;3.90;99.90;;;;;;4206343;28;20460;-81
2021/10/11 03:32:56;;;;;;;20.23;10.17;;;3.90;99.90;;;;;;4195475;28;20495;-81
2021/10/11 03:34:58;;;;;;;20.73;10.43;;;4.00;99.90;;;;;;4198301;28;20480;-81
2021/10/11 03:37:00;;;;;;;19.53;10.03;;;3.90;99.90;;;;;;4198836;28;20514;-81
2021/10/11 03:39:01;;;;;;;17.50;9.77;;;4.00;99.90;;;;;;4197431;28;20573;-81
2021/10/11 03:41:03;;;;;;;17.37;10.37;;;4.00;99.90;;;;;;4198329;28;20545;-81
2021/10/11 03:43:05;;;;;;;21.10;10.33;;;4.00;99.90;;;;;;4198993;28;20448;-81
2021/10/11 03:45:07;;;;;;;15.67;9.53;;;3.90;99.90;;;;;;4200786;28;20972;-81
2021/10/11 03:47:10;;;;;;;19.03;9.90;;;3.90;99.90;;;;;;4198438;28;20464;-81
2021/10/11 03:49:12;;;;;;;18.77;10.53;;;3.90;99.90;;;;;;4198622;28;20439;-80
2021/10/11 03:51:14;;;;;;;19.23;9.77;;;4.00;99.90;;;;;;4197867;28;20836;-81
2021/10/11 03:53:16;;;;;;;21.60;9.80;;;4.00;99.90;;;;;;4199855;28;20476;-81
2021/10/11 03:55:18;;;;;;;20.13;9.70;;;4.00;99.90;;;;;;4197203;28;20561;-80
2021/10/11 03:57:20;;;;;;;19.80;10.30;;;4.00;99.90;;;;;;4197447;28;20525;-81
2021/10/11 03:59:21;;;;;;;20.20;9.70;;;4.00;99.90;;;;;;4199524;28;20456;-81
2021/10/11 04:01:23;;;;;;;17.90;9.47;;;4.00;99.90;;;;;;4198269;28;20464;-80
2021/10/11 04:03:26;;;;;;;18.90;10.60;;;4.10;99.90;;;;;;4183728;28;20441;-81
2021/10/11 04:05:28;;;;;;;18.80;9.97;;;4.10;99.90;;;;;;4197531;28;21096;-81
2021/10/11 04:07:30;;;;;;;18.33;10.03;;;4.10;99.90;;;;;;4192211;28;20828;-81
2021/10/11 04:09:32;;;;;;;24.97;10.77;;;4.10;99.90;;;;;;4198798;28;20475;-81
2021/10/11 04:11:34;;;;;;;18.77;10.27;;;4.10;99.90;;;;;;4198864;28;20501;-81
2021/10/11 04:13:35;;;;;;;17.53;10.00;;;4.20;99.90;;;;;;4199147;28;20567;-81
2021/10/11 04:15:37;;;;;;;18.97;10.17;;;4.20;99.90;;;;;;4204128;28;20530;-81
2021/10/11 04:17:39;;;;;;;18.63;9.93;;;4.20;99.90;;;;;;4199305;28;20464;-81
2021/10/11 04:19:42;;;;;;;18.53;10.23;;;4.20;99.90;;;;;;4199714;28;20504;-81
2021/10/11 04:21:44;;;;;;;21.27;10.30;;;4.20;99.90;;;;;;4199032;28;20481;-81
2021/10/11 04:23:46;;;;;;;20.30;10.40;;;4.20;99.90;;;;;;4205982;28;20494;-81
2021/10/11 04:25:48;;;;;;;21.10;10.10;;;4.20;99.90;;;;;;4199047;28;20498;-81
2021/10/11 04:27:49;;;;;;;20.00;10.23;;;4.20;99.90;;;;;;4199719;28;20453;-81
2021/10/11 04:29:51;;;;;;;19.03;10.67;;;4.20;99.90;;;;;;4197636;28;20464;-81
2021/10/11 04:31:53;;;;;;;18.97;10.27;;;4.30;99.90;;;;;;4201646;28;20497;-81
2021/10/11 04:33:54;;;;;;;20.77;10.43;;;4.30;99.90;;;;;;4202809;28;20891;-81
2021/10/11 04:35:59;;;;;;;17.03;9.80;;;4.30;99.90;;;;;;4207518;28;20517;-81
2021/10/11 04:38:00;;;;;;;19.23;9.67;;;4.30;99.90;;;;;;4202894;28;20467;-81
2021/10/11 04:40:02;;;;;;;17.97;9.10;;;4.40;99.90;;;;;;4203819;28;20509;-81
2021/10/11 04:42:04;;;;;;;18.33;9.90;;;4.30;99.90;;;;;;4202654;28;20482;-81
2021/10/11 04:44:06;;;;;;;17.53;10.00;;;4.30;99.90;;;;;;4203207;28;20472;-81
2021/10/11 04:46:08;;;;;;;18.43;10.23;;;4.30;99.90;;;;;;4203927;28;20467;-81
2021/10/11 04:48:11;;;;;;;21.87;9.87;;;4.40;99.90;;;;;;4202498;28;20535;-81
2021/10/11 04:50:13;;;;;;;17.83;9.90;;;4.30;99.90;;;;;;4202748;28;20485;-81
2021/10/11 04:52:16;;;;;;;20.97;10.27;;;4.40;99.90;;;;;;4202610;28;20468;-82
2021/10/11 04:54:17;;;;;;;17.67;9.33;;;4.40;99.90;;;;;;4205043;28;20491;-80
2021/10/11 04:56:19;;;;;;;17.13;9.57;;;4.40;99.90;;;;;;4201766;28;21014;-80
2021/10/11 04:58:21;;;;;;;17.97;9.60;;;4.40;99.90;;;;;;4204161;28;21020;-79
2021/10/11 05:00:23;;;;;;;19.33;10.03;;;4.50;99.90;;;;;;4203071;28;20501;-78
2021/10/11 05:02:25;;;;;;;18.93;9.93;;;4.40;99.90;;;;;;4205714;28;20471;-80
2021/10/11 05:04:27;;;;;;;18.43;9.87;;;4.50;99.90;;;;;;4200373;28;20495;-80
2021/10/11 05:06:28;;;;;;;20.70;10.20;;;4.50;99.90;;;;;;4198371;28;20471;-80
2021/10/11 05:08:32;;;;;;;16.87;9.20;;;4.50;99.90;;;;;;4206652;28;20465;-80
2021/10/11 05:10:34;;;;;;;14.60;8.90;;;4.50;99.90;;;;;;4200558;28;20517;-82
2021/10/11 05:12:36;;;;;;;17.17;9.30;;;4.50;99.90;;;;;;4196770;28;20823;-82
2021/10/11 05:14:37;;;;;;;19.07;9.70;;;4.50;99.90;;;;;;4197936;28;20480;-80
2021/10/11 05:16:39;;;;;;;18.53;9.40;;;4.50;99.90;;;;;;4199177;28;20464;-81
2021/10/11 05:18:41;;;;;;;19.83;9.67;;;4.60;99.90;;;;;;4199303;28;20546;-82
2021/10/11 05:20:48;;;;;;;15.60;8.97;;;4.60;99.90;;;;;;4198270;28;20463;-80
2021/10/11 05:22:49;;;;;;;15.63;8.70;;;4.60;99.90;;;;;;4198374;28;20467;-81
2021/10/11 05:24:52;;;;;;;17.67;9.03;;;4.60;99.90;;;;;;4201080;28;20518;-81
2021/10/11 05:26:55;;;;;;;17.93;9.50;;;4.60;99.90;;;;;;4203505;28;20445;-81
2021/10/11 05:28:57;;;;;;;15.37;8.47;;;4.60;99.90;;;;;;4190864;28;20548;-81
2021/10/11 05:30:59;;;;;;;15.37;8.43;;;4.60;99.90;;;;;;4195179;28;20531;-81
2021/10/11 05:33:00;;;;;;;16.23;8.90;;;4.60;99.90;;;;;;4201497;28;20499;-81
2021/10/11 05:35:03;;;;;;;14.63;8.10;;;4.60;99.90;;;;;;4200613;28;20892;-81
2021/10/11 05:37:05;;;;;;;15.43;8.87;;;4.70;99.90;;;;;;4202120;28;20455;-81
2021/10/11 05:39:07;;;;;;;21.43;10.07;;;4.70;99.90;;;;;;4200172;28;20487;-81
2021/10/11 05:41:10;;;;;;;16.60;8.80;;;4.70;99.90;;;;;;4192100;28;20850;-81
2021/10/11 05:43:12;;;;;;;17.10;9.17;;;4.80;99.90;;;;;;4185306;28;20479;-81
2021/10/11 05:45:13;;;;;;;15.17;8.97;;;4.70;99.90;;;;;;4184510;28;20469;-81
2021/10/11 05:47:16;;;;;;;16.47;9.67;;;4.80;99.90;;;;;;4185784;28;20530;-81
2021/10/11 05:49:18;;;;;;;19.83;9.00;;;4.80;99.90;;;;;;4184091;28;21422;-81
2021/10/11 05:51:20;;;;;;;22.00;10.17;;;4.80;99.90;;;;;;4195431;28;20471;-80
2021/10/11 05:53:21;;;;;;;17.17;8.90;;;4.80;99.90;;;;;;4197086;28;20483;-81
2021/10/11 05:55:23;;;;;;;16.47;8.83;;;4.90;99.90;;;;;;4196780;28;20476;-80
2021/10/11 05:57:26;;;;;;;18.50;9.33;;;4.90;99.90;;;;;;4193222;28;20476;-81
2021/10/11 05:59:28;;;;;;;17.63;9.77;;;4.90;99.90;;;;;;4198094;28;20460;-80
2021/10/11 06:01:30;;;;;;;18.27;9.90;;;4.90;99.90;;;;;;4189293;28;20481;-80
2021/10/11 06:03:31;;;;;;;17.03;9.10;;;5.00;99.90;;;;;;4197901;28;20724;-80
2021/10/11 06:05:33;;;;;;;19.23;9.70;;;5.00;99.90;;;;;;4192529;28;20554;-81
2021/10/11 06:07:35;;;;;;;19.23;8.47;;;5.00;99.90;;;;;;4196762;28;20464;-80
2021/10/11 06:09:36;;;;;;;19.37;9.77;;;5.00;99.90;;;;;;4195297;28;20456;-80
2021/10/11 06:11:39;;;;;;;17.80;9.50;;;5.10;99.90;;;;;;4194093;28;20525;-80
2021/10/11 06:13:42;;;;;;;17.57;9.23;;;5.10;99.90;;;;;;4199581;28;20526;-79
2021/10/11 06:15:45;;;;;;;17.63;9.83;;;5.10;99.90;;;;;;4201618;28;20452;-79
2021/10/11 06:17:47;;;;;;;16.20;9.30;;;5.20;99.90;;;;;;4198236;28;22182;-80
2021/10/11 06:19:49;;;;;;;20.77;9.97;;;5.20;99.90;;;;;;4189538;28;21093;-79
2021/10/11 06:21:50;;;;;;;18.07;9.90;;;5.20;99.90;;;;;;4192729;28;21022;-79
2021/10/11 06:23:52;;;;;;;19.93;9.83;;;5.30;99.90;;;;;;4190499;28;20472;-79
2021/10/11 06:25:54;;;;;;;18.30;9.37;;;5.30;99.90;;;;;;4193613;28;20460;-79
2021/10/11 06:27:56;;;;;;;19.00;9.87;;;5.30;99.90;;;;;;4190224;28;20476;-79
2021/10/11 06:29:59;;;;;;;19.43;9.17;;;5.40;99.90;;;;;;4194076;28;20881;-79
2021/10/11 06:32:01;;;;;;;14.63;8.83;;;5.40;99.90;;;;;;4193051;28;20476;-79
2021/10/11 06:34:03;;;;;;;18.90;9.53;;;5.40;99.90;;;;;;4190803;28;20551;-79
2021/10/11 06:36:05;;;;;;;18.97;9.53;;;5.50;99.90;;;;;;4190339;28;20464;-79
2021/10/11 06:38:06;;;;;;;19.03;10.17;;;5.50;99.90;;;;;;4189542;28;20452;-79
2021/10/11 06:40:09;;;;;;;17.03;9.53;;;5.50;99.90;;;;;;4193647;28;20468;-78
2021/10/11 06:42:11;;;;;;;18.50;9.53;;;5.60;99.90;;;;;;4192178;28;21045;-77
2021/10/11 06:44:12;;;;;;;22.23;10.23;;;5.60;99.90;;;;;;4190438;28;20604;-78
2021/10/11 06:46:15;;;;;;;20.93;9.90;;;5.60;99.90;;;;;;4195584;28;20998;-78
2021/10/11 06:48:18;;;;;;;18.90;10.20;;;5.60;99.90;;;;;;4187108;28;20473;-77
2021/10/11 06:50:20;;;;;;;17.00;9.47;;;5.70;99.90;;;;;;4191590;28;20560;-78
2021/10/11 06:52:21;;;;;;;17.23;9.30;;;5.70;99.90;;;;;;4189106;28;20465;-78
2021/10/11 06:54:23;;;;;;;18.87;10.00;;;5.70;99.90;;;;;;4195033;28;20499;-78
2021/10/11 06:56:25;;;;;;;17.77;10.07;;;5.80;99.90;;;;;;4193134;28;20855;-78
2021/10/11 06:58:26;;;;;;;18.00;10.33;;;5.80;99.90;;;;;;4196224;28;20875;-79
2021/10/11 07:00:28;;;;;;;17.23;10.03;;;5.90;99.90;;;;;;4194737;28;20543;-79
2021/10/11 07:02:31;;;;;;;19.60;10.37;;;6.00;99.90;;;;;;4192461;28;20528;-78
2021/10/11 07:04:33;;;;;;;19.10;10.10;;;6.00;99.90;;;;;;4198680;28;20492;-78
2021/10/11 07:06:34;;;;;;;19.30;10.27;;;6.10;99.90;;;;;;4198460;28;20463;-78
2021/10/11 07:08:36;;;;;;;17.73;10.70;;;6.20;99.90;;;;;;4202285;28;20502;-78
2021/10/11 07:10:38;;;;;;;17.47;10.00;;;6.20;99.90;;;;;;4201349;28;20915;-78
2021/10/11 07:12:40;;;;;;;20.77;10.87;;;6.30;99.90;;;;;;4209002;28;20949;-79
2021/10/11 07:14:41;;;;;;;17.87;10.53;;;6.40;99.90;;;;;;4194274;28;20528;-78
2021/10/11 07:16:45;;;;;;;18.80;10.47;;;6.40;99.90;;;;;;4197848;28;20469;-78
2021/10/11 07:18:48;;;;;;;18.30;9.57;;;6.50;99.90;;;;;;4204731;28;20556;-78
2021/10/11 07:20:50;;;;;;;19.83;11.37;;;6.60;99.90;;;;;;4181181;28;20466;-78
2021/10/11 07:22:51;;;;;;;20.13;9.90;;;6.70;99.90;;;;;;4201137;28;20518;-77
2021/10/11 07:24:53;;;;;;;17.97;9.83;;;6.70;99.90;;;;;;4193362;28;20466;-77
2021/10/11 07:26:55;;;;;;;21.60;11.03;;;6.90;99.90;;;;;;4190743;28;20508;-77
2021/10/11 07:28:56;;;;;;;22.23;11.60;;;6.90;99.90;;;;;;4176261;28;20530;-78
2021/10/11 07:30:59;;;;;;;24.43;11.77;;;7.00;99.90;;;;;;4175726;28;20747;-77
2021/10/11 07:33:01;;;;;;;21.90;11.27;;;7.00;99.90;;;;;;4181919;28;20475;-77
2021/10/11 07:35:04;;;;;;;20.07;11.03;;;7.10;99.90;;;;;;4190531;28;20505;-77
2021/10/11 07:37:06;;;;;;;21.10;12.27;;;7.20;99.90;;;;;;4195707;28;20458;-77
2021/10/11 07:39:08;;;;;;;21.70;12.03;;;7.20;99.90;;;;;;4201696;28;20966;-77
2021/10/11 07:41:09;;;;;;;23.47;11.40;;;7.30;99.90;;;;;;4194129;28;20903;-77
2021/10/11 07:43:11;;;;;;;25.67;12.80;;;7.40;99.90;;;;;;4204660;28;20527;-77
2021/10/11 07:45:14;;;;;;;22.70;12.17;;;7.50;99.90;;;;;;4179460;28;20562;-77
2021/10/11 07:47:15;;;;;;;23.43;12.77;;;7.50;99.90;;;;;;4175342;28;20930;-77
2021/10/11 07:49:17;;;;;;;23.37;12.83;;;7.50;99.90;;;;;;4188232;28;20946;-77
2021/10/11 07:51:20;;;;;;;23.53;12.20;;;7.60;99.90;;;;;;4189920;28;20459;-77
2021/10/11 07:53:22;;;;;;;24.30;12.73;;;7.60;99.90;;;;;;4197039;28;20460;-77
2021/10/11 07:55:24;;;;;;;22.90;12.67;;;7.70;99.90;;;;;;4202327;28;20503;-77
2021/10/11 07:57:25;;;;;;;24.27;12.97;;;7.70;99.90;;;;;;4196395;28;20944;-77
2021/10/11 07:59:28;;;;;;;24.60;13.80;;;7.70;99.90;;;;;;4205198;28;20462;-77
2021/10/11 08:01:30;;;;;;;24.17;12.57;;;7.80;99.90;;;;;;4198331;28;20533;-77
2021/10/11 08:03:32;;;;;;;25.90;12.17;;;7.80;99.90;;;;;;4191826;28;20532;-77
2021/10/11 08:05:34;;;;;;;24.23;12.77;;;7.80;99.90;;;;;;4190434;28;20482;-77
2021/10/11 08:07:37;;;;;;;27.13;13.37;;;7.90;99.90;;;;;;4189772;28;20514;-77
2021/10/11 08:09:38;;;;;;;25.77;13.20;;;7.90;99.90;;;;;;4175986;28;20456;-78
2021/10/11 08:11:42;;;;;;;26.07;13.60;;;7.90;99.90;;;;;;4191694;28;20475;-78
2021/10/11 08:13:44;;;;;;;24.47;13.83;;;7.90;99.90;;;;;;4190126;28;20477;-78
2021/10/11 08:15:45;;;;;;;21.37;12.40;;;8.00;99.90;;;;;;4190983;28;20482;-78
2021/10/11 08:17:49;;;;;;;24.03;12.13;;;8.00;99.90;;;;;;4191374;28;20460;-78
2021/10/11 08:19:51;;;;;;;23.90;13.27;;;8.00;99.90;;;;;;4192345;28;20493;-78
2021/10/11 08:21:53;;;;;;;25.33;13.70;;;8.10;99.90;;;;;;4190701;28;20472;-77
2021/10/11 08:23:57;;;;;;;23.97;14.63;;;8.10;99.90;;;;;;4205388;28;20470;-77
2021/10/11 08:25:59;;;;;;;28.27;13.40;;;8.10;99.90;;;;;;4186179;28;20788;-77
2021/10/11 08:28:01;;;;;;;28.87;13.97;;;8.10;99.90;;;;;;4193554;28;20820;-77
2021/10/11 08:30:04;;;;;;;24.50;13.20;;;8.20;99.90;;;;;;4187031;28;20455;-79
2021/10/11 08:32:06;;;;;;;23.93;13.80;;;8.20;99.90;;;;;;4192384;28;20481;-78
2021/10/11 08:34:08;;;;;;;25.30;13.50;;;8.20;99.90;;;;;;4192507;28;20541;-79
2021/10/11 08:36:12;;;;;;;27.33;14.07;;;8.20;99.90;;;;;;4193659;28;20942;-77
2021/10/11 08:38:14;;;;;;;24.97;12.97;;;8.20;99.90;;;;;;4190995;28;20447;-77
2021/10/11 08:40:18;;;;;;;26.60;13.10;;;8.20;99.90;;;;;;4190369;28;20467;-78
2021/10/11 08:42:21;;;;;;;22.33;12.60;;;8.30;99.90;;;;;;4192486;28;20522;-78
2021/10/11 08:44:23;;;;;;;25.37;14.23;;;8.30;99.90;;;;;;4196301;28;20489;-77
2021/10/11 08:46:25;;;;;;;23.70;13.67;;;8.30;99.90;;;;;;4194836;28;20503;-78
2021/10/11 08:48:26;;;;;;;26.80;14.17;;;8.30;99.90;;;;;;4190210;28;21039;-78
2021/10/11 08:50:28;;;;;;;24.93;13.83;;;8.30;99.90;;;;;;4191236;28;20514;-78
2021/10/11 08:52:30;;;;;;;26.77;14.80;;;8.30;99.90;;;;;;4191833;28;20459;-78
2021/10/11 08:54:32;;;;;;;27.10;14.47;;;8.30;99.90;;;;;;4194171;28;20556;-78
2021/10/11 08:56:35;;;;;;;29.33;15.50;;;8.30;99.90;;;;;;4194551;28;20860;-78
2021/10/11 08:58:45;;;;;;;28.60;14.63;;;8.30;99.90;;;;;;4195722;28;20596;-78
2021/10/11 09:00:46;;;;;;;27.70;15.13;;;8.30;99.90;;;;;;4193442;28;20455;-78
2021/10/11 09:02:54;;;;;;;32.10;16.30;;;8.30;99.90;;;;;;4192544;28;20459;-78
2021/10/11 09:04:57;;;;;;;32.83;16.50;;;8.30;99.90;;;;;;4190681;28;20578;-78
2021/10/11 09:07:02;;;;;;;28.90;16.73;;;8.30;99.90;;;;;;4194441;28;20980;-78
2021/10/11 09:09:10;;;;;;;40.13;18.47;;;8.30;99.90;;;;;;4194855;28;20505;-77
2021/10/11 09:11:13;;;;;;;35.33;17.37;;;8.30;99.90;;;;;;4194060;28;20514;-77
2021/10/11 09:13:17;;;;;;;42.33;18.27;;;8.30;99.90;;;;;;4198223;28;20450;-77
2021/10/11 09:15:19;;;;;;;36.73;18.07;;;8.20;99.90;;;;;;4195297;28;20946;-77
2021/10/11 09:17:28;;;;;;;32.47;18.60;;;8.20;99.90;;;;;;4200674;28;20855;-77
2021/10/11 09:19:35;;;;;;;35.33;18.40;;;8.20;99.90;;;;;;4198915;28;20840;-76
2021/10/11 09:21:37;;;;;;;36.63;19.33;;;8.20;99.90;;;;;;4194494;28;20967;-77
2021/10/11 09:23:39;;;;;;;38.33;20.20;;;8.30;99.90;;;;;;4200245;28;20513;-77
2021/10/11 09:25:41;;;;;;;37.60;19.43;;;8.30;99.90;;;;;;4197893;28;20459;-77
2021/10/11 09:27:49;;;;;;;37.97;20.67;;;8.30;99.90;;;;;;4197838;28;20459;-76
2021/10/11 09:29:52;;;;;;;41.57;21.70;;;8.40;99.90;;;;;;4204540;28;20458;-77
2021/10/11 09:31:54;;;;;;;39.97;20.10;;;8.40;99.90;;;;;;4193622;28;20471;-77
2021/10/11 09:34:00;;;;;;;42.73;21.57;;;8.40;99.90;;;;;;4191303;28;20524;-77
2021/10/11 09:36:03;;;;;;;45.63;24.10;;;8.40;99.90;;;;;;4190244;28;20524;-77
2021/10/11 09:38:16;;;;;;;48.20;23.90;;;8.40;99.90;;;;;;4195919;28;20512;-77
2021/10/11 09:40:19;;;;;;;45.77;23.20;;;8.50;99.90;;;;;;4181674;28;20838;-77
2021/10/11 09:42:21;;;;;;;47.67;23.73;;;8.50;99.90;;;;;;4191935;28;20456;-77
2021/10/11 09:44:24;;;;;;;59.20;26.77;;;8.40;99.90;;;;;;4198486;28;20479;-77
2021/10/11 09:46:29;;;;;;;50.13;24.30;;;8.40;99.90;;;;;;4194214;28;20460;-77
2021/10/11 09:48:31;;;;;;;52.00;24.87;;;8.40;99.90;;;;;;4192823;28;20506;-77
2021/10/11 09:50:33;;;;;;;48.50;23.87;;;8.40;99.90;;;;;;4192778;28;20491;-77
2021/10/11 09:52:36;;;;;;;49.33;24.63;;;8.40;99.90;;;;;;4192878;28;20467;-76
2021/10/11 09:54:39;;;;;;;49.33;25.17;;;8.40;99.90;;;;;;4195598;28;20549;-76
2021/10/11 09:56:43;;;;;;;56.20;27.07;;;8.50;99.90;;;;;;4196647;28;20545;-77
2021/10/11 09:58:44;;;;;;;54.33;25.53;;;8.50;99.90;;;;;;4201385;28;20460;-77
2021/10/11 10:00:46;;;;;;;49.67;24.47;;;8.50;99.90;;;;;;4204561;28;20458;-77
2021/10/11 10:02:50;;;;;;;50.57;25.53;;;8.60;99.90;;;;;;4193212;28;20520;-77
2021/10/11 10:04:56;;;;;;;55.13;26.33;;;8.60;99.90;;;;;;4177728;28;21074;-76
2021/10/11 10:07:01;;;;;;;54.87;25.97;;;8.60;99.90;;;;;;4201209;28;20824;-77
2021/10/11 10:09:05;;;;;;;49.53;25.03;;;8.60;99.90;;;;;;4191737;28;20462;-79
2021/10/11 10:11:08;;;;;;;50.00;25.57;;;8.70;99.90;;;;;;4191810;28;20547;-76
2021/10/11 10:13:18;;;;;;;57.30;27.57;;;8.70;99.90;;;;;;4192069;28;20471;-77
2021/10/11 10:15:29;;;;;;;54.97;28.07;;;8.80;99.90;;;;;;4202757;28;20650;-77
2021/10/11 10:17:32;;;;;;;54.93;26.57;;;8.80;99.90;;;;;;4206372;28;20550;-77
2021/10/11 10:19:37;;;;;;;53.47;24.83;;;8.80;99.90;;;;;;4193108;28;20460;-76
2021/10/11 10:21:40;;;;;;;52.37;26.20;;;8.90;99.90;;;;;;4193864;28;20490;-76
2021/10/11 10:23:44;;;;;;;53.87;25.93;;;8.90;99.90;;;;;;4187001;28;20476;-76
2021/10/11 10:25:47;;;;;;;52.87;25.70;;;8.90;99.90;;;;;;4196728;28;20213;-76
2021/10/11 10:27:50;;;;;;;56.47;26.17;;;8.90;99.90;;;;;;4196341;28;20547;-77
2021/10/11 10:29:52;;;;;;;54.27;26.33;;;8.90;99.90;;;;;;4202440;28;20521;-76
2021/10/11 10:31:54;;;;;;;60.57;26.63;;;9.00;99.90;;;;;;4200850;28;20466;-77